sensor_id;sensor_type;location;lat;lon;timestamp;pressure;altitude;pressure_sealevel;temperature;humidity
5651;BME280;40241;52.684;9.758;2023-02-18T00:02:15;101616.69;;;9.55;61.74
5651;BME280;40241;52.684;9.758;2023-02-18T00:04:41;101631.97;;;9.56;61.62
5651;BME280;40241;52.684;9.758;2023-02-18T00:07:06;101626.00;;;9.57;61.76
5651;BME280;40241;52.684;9.758;2023-02-18T00:09:31;101611.78;;;9.59;61.64
5651;BME280;40241;52.684;9.758;2023-02-18T00:11:57;101616.84;;;9.60;61.67
5651;BME280;40241;52.684;9.758;2023-02-18T00:14:22;101624.59;;;9.62;61.61
5651;BME280;40241;52.684;9.758;2023-02-18T00:16:48;101624.91;;;9.64;61.59
5651;BME280;40241;52.684;9.758;2023-02-18T00:19:16;101628.13;;;9.62;61.47
5651;BME280;40241;52.684;9.758;2023-02-18T00:21:42;101611.66;;;9.62;61.52
5651;BME280;40241;52.684;9.758;2023-02-18T00:24:08;101622.63;;;9.62;61.62
5651;BME280;40241;52.684;9.758;2023-02-18T00:26:34;101634.38;;;9.63;61.63
5651;BME280;40241;52.684;9.758;2023-02-18T00:29:00;101638.34;;;9.62;61.60
5651;BME280;40241;52.684;9.758;2023-02-18T00:31:29;101637.13;;;9.63;61.71
5651;BME280;40241;52.684;9.758;2023-02-18T00:33:56;101636.06;;;9.60;61.70
5651;BME280;40241;52.684;9.758;2023-02-18T00:36:22;101654.22;;;9.67;61.54
5651;BME280;40241;52.684;9.758;2023-02-18T00:38:50;101631.47;;;9.66;61.59
5651;BME280;40241;52.684;9.758;2023-02-18T00:41:16;101632.53;;;9.69;61.80
5651;BME280;40241;52.684;9.758;2023-02-18T00:43:42;101641.38;;;9.73;61.67
5651;BME280;40241;52.684;9.758;2023-02-18T00:46:07;101642.91;;;9.74;61.61
5651;BME280;40241;52.684;9.758;2023-02-18T00:48:34;101641.66;;;9.75;61.52
5651;BME280;40241;52.684;9.758;2023-02-18T00:51:00;101632.22;;;9.76;61.63
5651;BME280;40241;52.684;9.758;2023-02-18T00:53:27;101635.25;;;9.78;61.71
5651;BME280;40241;52.684;9.758;2023-02-18T00:55:52;101639.53;;;9.79;61.47
5651;BME280;40241;52.684;9.758;2023-02-18T00:58:18;101636.00;;;9.78;61.69
5651;BME280;40241;52.684;9.758;2023-02-18T01:00:44;101642.28;;;9.79;61.60
5651;BME280;40241;52.684;9.758;2023-02-18T01:03:10;101639.38;;;9.82;61.60
5651;BME280;40241;52.684;9.758;2023-02-18T01:05:37;101641.94;;;9.86;61.69
5651;BME280;40241;52.684;9.758;2023-02-18T01:08:03;101639.31;;;9.92;61.54
5651;BME280;40241;52.684;9.758;2023-02-18T01:10:28;101640.38;;;9.94;61.58
5651;BME280;40241;52.684;9.758;2023-02-18T01:12:54;101631.69;;;9.96;61.63
5651;BME280;40241;52.684;9.758;2023-02-18T01:15:20;101633.97;;;9.97;61.59
5651;BME280;40241;52.684;9.758;2023-02-18T01:17:45;101643.91;;;9.95;61.54
5651;BME280;40241;52.684;9.758;2023-02-18T01:20:12;101636.25;;;9.99;61.53
5651;BME280;40241;52.684;9.758;2023-02-18T01:22:37;101634.28;;;9.99;61.53
5651;BME280;40241;52.684;9.758;2023-02-18T01:25:03;101635.34;;;10.02;61.46
5651;BME280;40241;52.684;9.758;2023-02-18T01:27:29;101635.91;;;10.06;61.60
5651;BME280;40241;52.684;9.758;2023-02-18T01:29:54;101634.72;;;10.07;61.45
5651;BME280;40241;52.684;9.758;2023-02-18T01:32:20;101635.00;;;10.09;61.48
5651;BME280;40241;52.684;9.758;2023-02-18T01:34:45;101636.84;;;10.12;61.53
5651;BME280;40241;52.684;9.758;2023-02-18T01:37:11;101639.13;;;10.13;61.34
5651;BME280;40241;52.684;9.758;2023-02-18T01:39:37;101637.44;;;10.16;61.38
5651;BME280;40241;52.684;9.758;2023-02-18T01:42:02;101633.47;;;10.17;61.54
5651;BME280;40241;52.684;9.758;2023-02-18T01:44:28;101626.28;;;10.19;61.56
5651;BME280;40241;52.684;9.758;2023-02-18T01:46:54;101630.81;;;10.22;61.46
5651;BME280;40241;52.684;9.758;2023-02-18T01:49:25;101625.94;;;10.26;61.42
5651;BME280;40241;52.684;9.758;2023-02-18T01:52:07;101624.13;;;10.23;61.25
5651;BME280;40241;52.684;9.758;2023-02-18T01:54:37;101623.81;;;10.21;61.46
5651;BME280;40241;52.684;9.758;2023-02-18T01:57:16;101619.81;;;10.22;61.22
5651;BME280;40241;52.684;9.758;2023-02-18T01:59:55;101610.38;;;10.23;61.15
5651;BME280;40241;52.684;9.758;2023-02-18T02:02:24;101608.50;;;10.29;61.25
5651;BME280;40241;52.684;9.758;2023-02-18T02:04:51;101608.50;;;10.29;61.30
5651;BME280;40241;52.684;9.758;2023-02-18T02:07:18;101625.28;;;10.31;61.21
5651;BME280;40241;52.684;9.758;2023-02-18T02:09:45;101612.31;;;10.32;61.33
5651;BME280;40241;52.684;9.758;2023-02-18T02:20:31;101597.44;;;10.38;60.85
5651;BME280;40241;52.684;9.758;2023-02-18T02:32:15;101590.72;;;10.39;60.79
5651;BME280;40241;52.684;9.758;2023-02-18T02:37:40;101584.75;;;10.41;61.05
5651;BME280;40241;52.684;9.758;2023-02-18T02:45:58;101588.06;;;10.45;61.13
5651;BME280;40241;52.684;9.758;2023-02-18T02:51:32;101581.66;;;10.48;60.37
5651;BME280;40241;52.684;9.758;2023-02-18T02:54:11;101575.97;;;10.51;61.00
5651;BME280;40241;52.684;9.758;2023-02-18T02:56:37;101575.19;;;10.51;61.05
5651;BME280;40241;52.684;9.758;2023-02-18T02:59:05;101565.72;;;10.52;61.14
5651;BME280;40241;52.684;9.758;2023-02-18T03:07:43;101555.47;;;10.52;60.98
5651;BME280;40241;52.684;9.758;2023-02-18T03:10:35;101541.44;;;10.50;61.13
5651;BME280;40241;52.684;9.758;2023-02-18T03:15:48;101543.22;;;10.53;61.04
5651;BME280;40241;52.684;9.758;2023-02-18T03:21:10;101551.00;;;10.55;60.94
5651;BME280;40241;52.684;9.758;2023-02-18T03:23:45;101543.53;;;10.55;61.00
5651;BME280;40241;52.684;9.758;2023-02-18T03:26:15;101547.81;;;10.57;61.20
5651;BME280;40241;52.684;9.758;2023-02-18T03:28:44;101535.84;;;10.60;61.09
5651;BME280;40241;52.684;9.758;2023-02-18T03:31:14;101530.94;;;10.64;61.02
5651;BME280;40241;52.684;9.758;2023-02-18T03:33:56;101509.66;;;10.64;60.73
5651;BME280;40241;52.684;9.758;2023-02-18T03:36:23;101518.69;;;10.65;60.96
5651;BME280;40241;52.684;9.758;2023-02-18T03:38:55;101518.97;;;10.67;61.00
5651;BME280;40241;52.684;9.758;2023-02-18T03:41:23;101513.00;;;10.68;60.97
5651;BME280;40241;52.684;9.758;2023-02-18T03:43:52;101507.31;;;10.72;60.83
5651;BME280;40241;52.684;9.758;2023-02-18T03:46:19;101512.81;;;10.72;60.92
5651;BME280;40241;52.684;9.758;2023-02-18T03:48:44;101523.84;;;10.72;60.88
5651;BME280;40241;52.684;9.758;2023-02-18T03:51:10;101519.53;;;10.71;60.95
5651;BME280;40241;52.684;9.758;2023-02-18T03:53:36;101523.53;;;10.70;60.82
5651;BME280;40241;52.684;9.758;2023-02-18T03:56:01;101531.03;;;10.69;61.00
5651;BME280;40241;52.684;9.758;2023-02-18T03:58:27;101538.81;;;10.71;61.05
5651;BME280;40241;52.684;9.758;2023-02-18T04:00:52;101526.59;;;10.72;61.01
5651;BME280;40241;52.684;9.758;2023-02-18T04:03:17;101527.34;;;10.72;60.78
5651;BME280;40241;52.684;9.758;2023-02-18T04:05:43;101515.88;;;10.74;60.91
5651;BME280;40241;52.684;9.758;2023-02-18T04:08:08;101513.41;;;10.76;60.87
5651;BME280;40241;52.684;9.758;2023-02-18T04:10:33;101514.44;;;10.78;60.86
5651;BME280;40241;52.684;9.758;2023-02-18T04:12:59;101511.69;;;10.78;60.85
5651;BME280;40241;52.684;9.758;2023-02-18T04:15:24;101511.22;;;10.80;60.84
5651;BME280;40241;52.684;9.758;2023-02-18T04:17:50;101506.19;;;10.78;61.08
5651;BME280;40241;52.684;9.758;2023-02-18T04:20:15;101511.22;;;10.80;61.16
5651;BME280;40241;52.684;9.758;2023-02-18T04:22:40;101517.97;;;10.79;61.30
5651;BME280;40241;52.684;9.758;2023-02-18T04:25:06;101504.66;;;10.77;61.31
5651;BME280;40241;52.684;9.758;2023-02-18T04:27:32;101505.63;;;10.74;61.28
5651;BME280;40241;52.684;9.758;2023-02-18T04:29:57;101499.06;;;10.72;61.28
5651;BME280;40241;52.684;9.758;2023-02-18T04:32:22;101498.00;;;10.69;61.52
5651;BME280;40241;52.684;9.758;2023-02-18T04:34:48;101495.16;;;10.64;61.56
5651;BME280;40241;52.684;9.758;2023-02-18T04:37:13;101492.50;;;10.54;61.85
5651;BME280;40241;52.684;9.758;2023-02-18T04:39:38;101486.97;;;10.54;62.12
5651;BME280;40241;52.684;9.758;2023-02-18T04:42:04;101484.22;;;10.54;62.14
5651;BME280;40241;52.684;9.758;2023-02-18T04:44:34;101483.94;;;10.52;62.07
5651;BME280;40241;52.684;9.758;2023-02-18T04:46:59;101505.34;;;10.48;62.22
5651;BME280;40241;52.684;9.758;2023-02-18T04:49:25;101466.09;;;10.48;62.38
5651;BME280;40241;52.684;9.758;2023-02-18T04:51:50;101473.88;;;10.49;62.50
5651;BME280;40241;52.684;9.758;2023-02-18T04:54:15;101463.63;;;10.50;62.59
5651;BME280;40241;52.684;9.758;2023-02-18T04:56:41;101462.09;;;10.49;62.63
5651;BME280;40241;52.684;9.758;2023-02-18T04:59:06;101465.91;;;10.51;62.74
5651;BME280;40241;52.684;9.758;2023-02-18T05:01:31;101461.16;;;10.52;62.95
5651;BME280;40241;52.684;9.758;2023-02-18T05:03:57;101456.44;;;10.52;62.80
5651;BME280;40241;52.684;9.758;2023-02-18T05:06:22;101449.41;;;10.51;63.04
5651;BME280;40241;52.684;9.758;2023-02-18T05:08:47;101450.66;;;10.50;63.14
5651;BME280;40241;52.684;9.758;2023-02-18T05:11:13;101449.88;;;10.50;63.31
5651;BME280;40241;52.684;9.758;2023-02-18T05:13:38;101453.09;;;10.48;63.38
5651;BME280;40241;52.684;9.758;2023-02-18T05:16:03;101447.28;;;10.46;63.37
5651;BME280;40241;52.684;9.758;2023-02-18T05:18:29;101445.22;;;10.41;63.59
5651;BME280;40241;52.684;9.758;2023-02-18T05:20:54;101441.41;;;10.39;63.70
5651;BME280;40241;52.684;9.758;2023-02-18T05:23:20;101435.63;;;10.37;63.61
5651;BME280;40241;52.684;9.758;2023-02-18T05:25:46;101429.34;;;10.36;63.99
5651;BME280;40241;52.684;9.758;2023-02-18T05:28:11;101424.78;;;10.33;63.99
5651;BME280;40241;52.684;9.758;2023-02-18T05:30:36;101431.06;;;10.34;64.08
5651;BME280;40241;52.684;9.758;2023-02-18T05:33:02;101421.59;;;10.35;64.16
5651;BME280;40241;52.684;9.758;2023-02-18T05:35:28;101412.84;;;10.36;64.20
5651;BME280;40241;52.684;9.758;2023-02-18T05:37:53;101421.59;;;10.35;64.11
5651;BME280;40241;52.684;9.758;2023-02-18T05:40:18;101411.03;;;10.33;64.33
5651;BME280;40241;52.684;9.758;2023-02-18T05:42:44;101405.25;;;10.31;64.40
5651;BME280;40241;52.684;9.758;2023-02-18T05:45:09;101408.00;;;10.31;64.44
5651;BME280;40241;52.684;9.758;2023-02-18T05:47:35;101407.56;;;10.33;64.53
5651;BME280;40241;52.684;9.758;2023-02-18T05:50:00;101406.31;;;10.34;64.45
5651;BME280;40241;52.684;9.758;2023-02-18T05:52:26;101398.06;;;10.34;64.56
5651;BME280;40241;52.684;9.758;2023-02-18T05:54:51;101397.56;;;10.35;64.57
5651;BME280;40241;52.684;9.758;2023-02-18T05:57:17;101383.38;;;10.37;64.49
5651;BME280;40241;52.684;9.758;2023-02-18T05:59:42;101372.81;;;10.35;64.61
5651;BME280;40241;52.684;9.758;2023-02-18T06:02:08;101361.81;;;10.35;64.68
5651;BME280;40241;52.684;9.758;2023-02-18T06:04:33;101350.81;;;10.35;64.73
5651;BME280;40241;52.684;9.758;2023-02-18T06:06:58;101346.84;;;10.36;64.68
5651;BME280;40241;52.684;9.758;2023-02-18T06:09:24;101335.84;;;10.36;64.65
5651;BME280;40241;52.684;9.758;2023-02-18T06:11:49;101323.78;;;10.34;64.71
5651;BME280;40241;52.684;9.758;2023-02-18T06:14:15;101320.56;;;10.35;64.75
5651;BME280;40241;52.684;9.758;2023-02-18T06:16:40;101317.53;;;10.33;64.80
5651;BME280;40241;52.684;9.758;2023-02-18T06:19:06;101315.81;;;10.36;64.96
5651;BME280;40241;52.684;9.758;2023-02-18T06:21:31;101322.84;;;10.37;64.87
5651;BME280;40241;52.684;9.758;2023-02-18T06:23:56;101313.34;;;10.38;64.89
5651;BME280;40241;52.684;9.758;2023-02-18T06:26:22;101309.66;;;10.41;64.89
5651;BME280;40241;52.684;9.758;2023-02-18T06:28:47;101304.44;;;10.43;64.86
5651;BME280;40241;52.684;9.758;2023-02-18T06:31:12;101313.19;;;10.41;64.84
5651;BME280;40241;52.684;9.758;2023-02-18T06:33:38;101289.47;;;10.44;64.98
5651;BME280;40241;52.684;9.758;2023-02-18T06:36:06;101283.97;;;10.44;64.83
5651;BME280;40241;52.684;9.758;2023-02-18T06:38:33;101295.72;;;10.44;64.84
5651;BME280;40241;52.684;9.758;2023-02-18T06:40:59;101288.72;;;10.43;64.88
5651;BME280;40241;52.684;9.758;2023-02-18T06:43:24;101292.69;;;10.42;64.98
5651;BME280;40241;52.684;9.758;2023-02-18T06:45:50;101278.47;;;10.44;64.89
5651;BME280;40241;52.684;9.758;2023-02-18T06:48:15;101279.97;;;10.45;65.05
5651;BME280;40241;52.684;9.758;2023-02-18T06:50:41;101267.47;;;10.44;65.10
5651;BME280;40241;52.684;9.758;2023-02-18T06:53:06;101262.25;;;10.46;65.08
5651;BME280;40241;52.684;9.758;2023-02-18T06:55:32;101258.25;;;10.47;65.07
5651;BME280;40241;52.684;9.758;2023-02-18T06:57:57;101257.75;;;10.48;65.21
5651;BME280;40241;52.684;9.758;2023-02-18T07:00:23;101250.75;;;10.47;65.20
5651;BME280;40241;52.684;9.758;2023-02-18T07:02:48;101245.25;;;10.47;65.09
5651;BME280;40241;52.684;9.758;2023-02-18T07:05:13;101237.75;;;10.48;65.11
5651;BME280;40241;52.684;9.758;2023-02-18T07:07:39;101226.28;;;10.49;65.14
5651;BME280;40241;52.684;9.758;2023-02-18T07:10:05;101200.47;;;10.47;65.23
5651;BME280;40241;52.684;9.758;2023-02-18T07:12:30;101199.25;;;10.48;65.24
5651;BME280;40241;52.684;9.758;2023-02-18T07:14:56;101194.50;;;10.48;65.28
5651;BME280;40241;52.684;9.758;2023-02-18T07:17:21;101183.50;;;10.48;65.47
5651;BME280;40241;52.684;9.758;2023-02-18T07:19:46;101186.81;;;10.52;65.31
5651;BME280;40241;52.684;9.758;2023-02-18T07:22:12;101179.78;;;10.51;65.35
5651;BME280;40241;52.684;9.758;2023-02-18T07:24:37;101181.03;;;10.50;65.44
5651;BME280;40241;52.684;9.758;2023-02-18T07:27:02;101177.53;;;10.50;65.48
5651;BME280;40241;52.684;9.758;2023-02-18T07:29:28;101184.25;;;10.49;65.55
5651;BME280;40241;52.684;9.758;2023-02-18T07:31:53;101182.53;;;10.51;65.47
5651;BME280;40241;52.684;9.758;2023-02-18T07:34:19;101175.81;;;10.52;65.53
5651;BME280;40241;52.684;9.758;2023-02-18T07:36:44;101170.31;;;10.52;65.38
5651;BME280;40241;52.684;9.758;2023-02-18T07:39:09;101167.06;;;10.54;65.60
5651;BME280;40241;52.684;9.758;2023-02-18T07:41:35;101160.03;;;10.53;65.71
5651;BME280;40241;52.684;9.758;2023-02-18T07:44:00;101149.81;;;10.53;65.81
5651;BME280;40241;52.684;9.758;2023-02-18T07:46:25;101137.31;;;10.52;65.63
5651;BME280;40241;52.684;9.758;2023-02-18T07:48:51;101134.28;;;10.50;65.85
5651;BME280;40241;52.684;9.758;2023-02-18T07:51:16;101125.53;;;10.52;65.91
5651;BME280;40241;52.684;9.758;2023-02-18T07:53:42;101136.06;;;10.53;65.66
5651;BME280;40241;52.684;9.758;2023-02-18T07:56:07;101131.31;;;10.54;65.90
5651;BME280;40241;52.684;9.758;2023-02-18T07:58:35;101123.06;;;10.54;65.90
5651;BME280;40241;52.684;9.758;2023-02-18T08:01:13;101121.53;;;10.53;66.32
5651;BME280;40241;52.684;9.758;2023-02-18T08:03:39;101116.78;;;10.53;65.94
5651;BME280;40241;52.684;9.758;2023-02-18T08:06:06;101115.84;;;10.57;66.09
5651;BME280;40241;52.684;9.758;2023-02-18T08:08:31;101116.38;;;10.61;65.87
5651;BME280;40241;52.684;9.758;2023-02-18T08:10:59;101115.13;;;10.62;66.10
5651;BME280;40241;52.684;9.758;2023-02-18T08:13:30;101104.91;;;10.62;66.09
5651;BME280;40241;52.684;9.758;2023-02-18T08:15:57;101098.44;;;10.65;66.09
5651;BME280;40241;52.684;9.758;2023-02-18T08:18:24;101089.69;;;10.67;66.07
5651;BME280;40241;52.684;9.758;2023-02-18T08:20:49;101084.97;;;10.67;66.15
5651;BME280;40241;52.684;9.758;2023-02-18T08:23:17;101085.72;;;10.68;66.29
5651;BME280;40241;52.684;9.758;2023-02-18T08:25:45;101083.69;;;10.68;66.00
5651;BME280;40241;52.684;9.758;2023-02-18T08:28:10;101070.25;;;10.70;66.26
5651;BME280;40241;52.684;9.758;2023-02-18T08:30:36;101065.47;;;10.71;66.36
5651;BME280;40241;52.684;9.758;2023-02-18T08:33:01;101055.22;;;10.71;66.33
5651;BME280;40241;52.684;9.758;2023-02-18T08:35:26;101050.00;;;10.73;66.62
5651;BME280;40241;52.684;9.758;2023-02-18T08:37:52;101053.78;;;10.76;66.44
5651;BME280;40241;52.684;9.758;2023-02-18T08:40:17;101045.78;;;10.78;66.66
5651;BME280;40241;52.684;9.758;2023-02-18T08:42:42;101043.59;;;10.82;66.59
5651;BME280;40241;52.684;9.758;2023-02-18T08:45:08;101022.31;;;10.82;66.71
5651;BME280;40241;52.684;9.758;2023-02-18T08:47:33;101017.38;;;10.86;66.74
5651;BME280;40241;52.684;9.758;2023-02-18T08:49:58;101010.91;;;10.89;66.61
5651;BME280;40241;52.684;9.758;2023-02-18T08:52:24;101016.66;;;10.91;66.84
5651;BME280;40241;52.684;9.758;2023-02-18T08:54:50;101001.72;;;10.98;66.82
5651;BME280;40241;52.684;9.758;2023-02-18T08:57:15;101002.03;;;11.05;66.79
5651;BME280;40241;52.684;9.758;2023-02-18T08:59:40;101002.09;;;11.11;66.99
5651;BME280;40241;52.684;9.758;2023-02-18T09:02:06;100989.38;;;11.19;67.34
5651;BME280;40241;52.684;9.758;2023-02-18T09:04:31;100992.22;;;11.30;67.75
5651;BME280;40241;52.684;9.758;2023-02-18T09:06:57;100987.06;;;11.43;68.03
5651;BME280;40241;52.684;9.758;2023-02-18T09:09:22;100984.47;;;11.60;68.46
5651;BME280;40241;52.684;9.758;2023-02-18T09:11:48;100978.53;;;11.72;68.28
5651;BME280;40241;52.684;9.758;2023-02-18T09:14:13;100975.84;;;11.83;68.67
5651;BME280;40241;52.684;9.758;2023-02-18T09:16:40;100977.41;;;11.95;68.70
5651;BME280;40241;52.684;9.758;2023-02-18T09:19:06;100971.44;;;12.02;69.06
5651;BME280;40241;52.684;9.758;2023-02-18T09:21:31;100971.25;;;12.12;69.09
5651;BME280;40241;52.684;9.758;2023-02-18T09:23:57;100953.72;;;12.20;69.51
5651;BME280;40241;52.684;9.758;2023-02-18T09:26:22;100955.50;;;12.29;69.58
5651;BME280;40241;52.684;9.758;2023-02-18T09:28:50;100956.53;;;12.37;69.50
5651;BME280;40241;52.684;9.758;2023-02-18T09:31:18;100953.28;;;12.44;69.66
5651;BME280;40241;52.684;9.758;2023-02-18T09:34:06;100955.31;;;12.49;69.62
5651;BME280;40241;52.684;9.758;2023-02-18T09:36:32;100946.78;;;12.52;69.97
5651;BME280;40241;52.684;9.758;2023-02-18T09:38:58;100953.06;;;12.58;69.86
5651;BME280;40241;52.684;9.758;2023-02-18T09:41:40;100955.34;;;12.65;71.49
5651;BME280;40241;52.684;9.758;2023-02-18T09:44:20;100957.84;;;12.69;70.77
5651;BME280;40241;52.684;9.758;2023-02-18T09:46:58;100958.63;;;12.75;70.84
5651;BME280;40241;52.684;9.758;2023-02-18T09:49:27;100951.84;;;12.76;69.73
5651;BME280;40241;52.684;9.758;2023-02-18T09:51:53;100951.63;;;12.79;70.14
5651;BME280;40241;52.684;9.758;2023-02-18T09:54:19;100952.59;;;12.82;70.09
5651;BME280;40241;52.684;9.758;2023-02-18T09:56:45;100950.63;;;12.88;70.22
5651;BME280;40241;52.684;9.758;2023-02-18T09:59:20;100934.56;;;12.92;71.08
5651;BME280;40241;52.684;9.758;2023-02-18T10:01:48;100933.56;;;12.95;70.37
5651;BME280;40241;52.684;9.758;2023-02-18T10:04:20;100943.59;;;12.98;70.41
5651;BME280;40241;52.684;9.758;2023-02-18T10:06:49;100939.06;;;13.01;70.31
5651;BME280;40241;52.684;9.758;2023-02-18T10:09:21;100944.84;;;13.03;70.62
5651;BME280;40241;52.684;9.758;2023-02-18T10:11:51;100930.53;;;13.04;70.60
5651;BME280;40241;52.684;9.758;2023-02-18T10:14:17;100937.59;;;13.05;70.63
5651;BME280;40241;52.684;9.758;2023-02-18T10:16:43;100938.09;;;13.09;70.81
5651;BME280;40241;52.684;9.758;2023-02-18T10:22:15;100939.59;;;13.16;70.52
5651;BME280;40241;52.684;9.758;2023-02-18T10:24:49;100946.13;;;13.18;70.33
5651;BME280;40241;52.684;9.758;2023-02-18T10:27:33;100946.38;;;13.20;70.85
5651;BME280;40241;52.684;9.758;2023-02-18T10:32:47;100937.84;;;13.18;70.44
5651;BME280;40241;52.684;9.758;2023-02-18T10:35:21;100935.34;;;13.20;70.46
5651;BME280;40241;52.684;9.758;2023-02-18T10:45:57;100934.34;;;13.23;70.99
5651;BME280;40241;52.684;9.758;2023-02-18T10:51:30;100931.06;;;13.19;70.52
5651;BME280;40241;52.684;9.758;2023-02-18T10:53:56;100929.28;;;13.22;70.41
5651;BME280;40241;52.684;9.758;2023-02-18T10:56:38;100928.81;;;13.23;71.34
5651;BME280;40241;52.684;9.758;2023-02-18T10:59:20;100925.03;;;13.26;71.04
5651;BME280;40241;52.684;9.758;2023-02-18T11:01:56;100918.00;;;13.31;70.68
5651;BME280;40241;52.684;9.758;2023-02-18T11:04:26;100920.25;;;13.32;70.45
5651;BME280;40241;52.684;9.758;2023-02-18T11:06:53;100917.47;;;13.38;70.54
5651;BME280;40241;52.684;9.758;2023-02-18T11:09:39;100925.50;;;13.41;70.99
5651;BME280;40241;52.684;9.758;2023-02-18T11:17:32;100906.66;;;13.40;70.49
5651;BME280;40241;52.684;9.758;2023-02-18T11:20:01;100908.69;;;13.39;70.64
5651;BME280;40241;52.684;9.758;2023-02-18T11:22:31;100912.97;;;13.40;70.61
5651;BME280;40241;52.684;9.758;2023-02-18T11:25:00;100911.94;;;13.43;70.63
5651;BME280;40241;52.684;9.758;2023-02-18T11:27:41;100916.47;;;13.46;71.01
5651;BME280;40241;52.684;9.758;2023-02-18T11:30:22;100922.00;;;13.46;71.26
5651;BME280;40241;52.684;9.758;2023-02-18T11:32:49;100914.94;;;13.45;70.67
5651;BME280;40241;52.684;9.758;2023-02-18T11:35:22;100902.41;;;13.44;70.74
5651;BME280;40241;52.684;9.758;2023-02-18T11:37:48;100899.63;;;13.44;70.69
5651;BME280;40241;52.684;9.758;2023-02-18T11:40:40;100892.81;;;13.45;70.89
5651;BME280;40241;52.684;9.758;2023-02-18T11:43:11;100894.09;;;13.44;70.67
5651;BME280;40241;52.684;9.758;2023-02-18T11:45:37;100892.81;;;13.45;70.63
5651;BME280;40241;52.684;9.758;2023-02-18T11:48:17;100891.34;;;13.44;71.22
5651;BME280;40241;52.684;9.758;2023-02-18T11:50:44;100886.53;;;13.50;70.66
5651;BME280;40241;52.684;9.758;2023-02-18T11:53:36;100883.53;;;13.48;71.24
5651;BME280;40241;52.684;9.758;2023-02-18T11:56:05;100884.53;;;13.51;70.64
5651;BME280;40241;52.684;9.758;2023-02-18T11:58:37;100891.31;;;13.50;70.96
5651;BME280;40241;52.684;9.758;2023-02-18T12:01:05;100890.34;;;13.47;70.68
5651;BME280;40241;52.684;9.758;2023-02-18T12:06:14;100887.81;;;13.49;70.77
5651;BME280;40241;52.684;9.758;2023-02-18T12:08:59;100892.59;;;13.49;70.83
5651;BME280;40241;52.684;9.758;2023-02-18T12:11:37;100896.63;;;13.42;71.00
5651;BME280;40241;52.684;9.758;2023-02-18T12:14:08;100903.66;;;13.38;70.99
5651;BME280;40241;52.684;9.758;2023-02-18T12:19:41;100909.47;;;13.34;71.07
5651;BME280;40241;52.684;9.758;2023-02-18T12:25:48;100911.72;;;13.36;71.35
5651;BME280;40241;52.684;9.758;2023-02-18T12:38:48;100907.19;;;13.38;70.80
5651;BME280;40241;52.684;9.758;2023-02-18T12:41:32;100903.41;;;13.41;70.65
5651;BME280;40241;52.684;9.758;2023-02-18T12:44:04;100910.19;;;13.40;70.72
5651;BME280;40241;52.684;9.758;2023-02-18T12:57:47;100908.94;;;13.36;71.13
5651;BME280;40241;52.684;9.758;2023-02-18T13:06:01;100908.44;;;13.32;70.80
5651;BME280;40241;52.684;9.758;2023-02-18T13:08:51;100914.47;;;13.30;71.03
5651;BME280;40241;52.684;9.758;2023-02-18T13:14:03;100917.22;;;13.30;71.25
5651;BME280;40241;52.684;9.758;2023-02-18T13:16:34;100934.06;;;13.32;70.90
5651;BME280;40241;52.684;9.758;2023-02-18T13:21:36;100930.78;;;13.39;70.90
5651;BME280;40241;52.684;9.758;2023-02-18T13:24:06;100941.84;;;13.39;70.71
5651;BME280;40241;52.684;9.758;2023-02-18T13:26:33;100946.13;;;13.40;70.68
5651;BME280;40241;52.684;9.758;2023-02-18T13:29:49;100946.34;;;13.37;70.91
5651;BME280;40241;52.684;9.758;2023-02-18T13:34:54;100960.44;;;13.33;70.85
5651;BME280;40241;52.684;9.758;2023-02-18T13:40:25;100957.94;;;13.30;70.98
5651;BME280;40241;52.684;9.758;2023-02-18T13:45:43;100959.44;;;13.25;70.98
5651;BME280;40241;52.684;9.758;2023-02-18T13:48:25;100951.41;;;13.27;71.18
5651;BME280;40241;52.684;9.758;2023-02-18T13:50:53;100959.44;;;13.31;70.79
5651;BME280;40241;52.684;9.758;2023-02-18T13:53:21;100960.72;;;13.30;70.93
5651;BME280;40241;52.684;9.758;2023-02-18T13:56:06;100965.22;;;13.27;71.14
5651;BME280;40241;52.684;9.758;2023-02-18T13:58:39;100960.47;;;13.28;70.81
5651;BME280;40241;52.684;9.758;2023-02-18T14:01:37;100958.44;;;13.28;71.26
5651;BME280;40241;52.684;9.758;2023-02-18T14:04:16;100961.44;;;13.30;70.90
5651;BME280;40241;52.684;9.758;2023-02-18T14:09:48;100976.28;;;13.27;71.01
5651;BME280;40241;52.684;9.758;2023-02-18T14:12:35;100972.00;;;13.32;70.79
5651;BME280;40241;52.684;9.758;2023-02-18T14:17:47;100988.06;;;13.33;70.74
5651;BME280;40241;52.684;9.758;2023-02-18T14:27:49;100996.88;;;13.32;70.83
5651;BME280;40241;52.684;9.758;2023-02-18T14:30:29;100993.34;;;13.31;71.06
5651;BME280;40241;52.684;9.758;2023-02-18T14:32:59;101001.13;;;13.33;70.73
5651;BME280;40241;52.684;9.758;2023-02-18T14:40:51;101000.91;;;13.36;70.85
5651;BME280;40241;52.684;9.758;2023-02-18T14:51:21;101024.75;;;13.34;71.00
5651;BME280;40241;52.684;9.758;2023-02-18T14:53:48;101028.28;;;13.34;70.98
5651;BME280;40241;52.684;9.758;2023-02-18T14:56:15;101027.25;;;13.37;71.05
5651;BME280;40241;52.684;9.758;2023-02-18T14:58:47;101027.25;;;13.37;70.89
5651;BME280;40241;52.684;9.758;2023-02-18T15:01:33;101037.06;;;13.38;70.94
5651;BME280;40241;52.684;9.758;2023-02-18T15:04:01;101040.31;;;13.37;70.90
5651;BME280;40241;52.684;9.758;2023-02-18T15:06:35;101042.59;;;13.38;70.70
5651;BME280;40241;52.684;9.758;2023-02-18T15:09:17;101040.56;;;13.39;70.72
5651;BME280;40241;52.684;9.758;2023-02-18T15:12:04;101040.31;;;13.37;71.02
5651;BME280;40241;52.684;9.758;2023-02-18T15:14:40;101046.59;;;13.37;70.83
5651;BME280;40241;52.684;9.758;2023-02-18T15:17:12;101050.88;;;13.33;70.86
5651;BME280;40241;52.684;9.758;2023-02-18T15:19:42;101047.84;;;13.31;70.94
5651;BME280;40241;52.684;9.758;2023-02-18T15:22:18;101055.63;;;13.32;71.12
5651;BME280;40241;52.684;9.758;2023-02-18T15:24:44;101052.41;;;13.34;70.83
5651;BME280;40241;52.684;9.758;2023-02-18T15:27:15;101054.91;;;13.37;70.50
5651;BME280;40241;52.684;9.758;2023-02-18T15:29:41;101065.19;;;13.31;70.75
5651;BME280;40241;52.684;9.758;2023-02-18T15:32:19;101064.44;;;13.31;70.78